Time;durP1;ratioP1;P1;durP2;ratioP2;P2;SDS_P1;SDS_P2;PMS_P1;PMS_P2;Temp;Humidity;BMP_temperature;BMP_pressure;BME280_temperature;BME280_humidity;BME280_pressure;Samples;Min_cycle;Max_cycle;Signal;HPM_P1;HPM_P2
2024/02/13 00:00:55;;;;;;;7.63;2.67;;;2.90;99.90;;;;;;4994010;28;20100;-57
2024/02/13 00:03:22;;;;;;;4.77;2.50;;;2.90;99.90;;;;;;4992757;28;20046;-58
2024/02/13 00:05:48;;;;;;;8.13;2.93;;;2.80;99.90;;;;;;4994051;28;20038;-56
2024/02/13 00:08:14;;;;;;;5.80;2.57;;;2.80;99.90;;;;;;4993758;28;20034;-58
2024/02/13 00:10:41;;;;;;;7.07;2.50;;;2.80;99.90;;;;;;4992477;28;20037;-56
2024/02/13 00:13:07;;;;;;;6.63;2.67;;;2.80;99.90;;;;;;4993756;28;20038;-58
2024/02/13 00:15:32;;;;;;;7.33;2.57;;;2.70;99.90;;;;;;4993701;28;20026;-58
2024/02/13 00:17:59;;;;;;;5.57;2.87;;;2.70;99.90;;;;;;4992537;28;20483;-56
2024/02/13 00:20:25;;;;;;;6.17;2.50;;;2.60;99.90;;;;;;4993660;28;20039;-56
2024/02/13 00:22:52;;;;;;;13.90;3.30;;;2.60;99.90;;;;;;4993703;28;20030;-58
2024/02/13 00:25:18;;;;;;;7.67;3.17;;;2.60;99.90;;;;;;4993692;28;20394;-57
2024/02/13 00:27:44;;;;;;;12.63;3.07;;;2.60;99.90;;;;;;4992320;28;20027;-58
2024/02/13 00:30:11;;;;;;;7.37;3.03;;;2.60;99.90;;;;;;4993386;28;20038;-57
2024/02/13 00:32:40;;;;;;;10.87;3.83;;;2.60;99.90;;;;;;4993598;28;20034;-57
2024/02/13 00:35:06;;;;;;;11.85;4.28;;;2.50;99.90;;;;;;4993364;28;20621;-58
2024/02/13 00:37:33;;;;;;;13.90;3.80;;;2.50;99.90;;;;;;4993411;28;20030;-58
2024/02/13 00:39:58;;;;;;;10.73;4.00;;;2.50;99.90;;;;;;4992945;28;20077;-58
2024/02/13 00:42:26;;;;;;;11.37;3.60;;;2.50;99.90;;;;;;4993176;28;20062;-55
2024/02/13 00:44:52;;;;;;;8.13;3.83;;;2.50;99.90;;;;;;4993142;28;20498;-57
2024/02/13 00:47:17;;;;;;;8.33;3.80;;;2.50;99.90;;;;;;4993178;28;20064;-58
2024/02/13 00:49:43;;;;;;;11.23;4.20;;;2.40;99.90;;;;;;4991703;28;20434;-58
2024/02/13 00:52:09;;;;;;;8.40;3.47;;;2.40;99.90;;;;;;4992671;28;20030;-57
2024/02/13 00:54:35;;;;;;;10.90;3.63;;;2.40;99.90;;;;;;4993153;28;20037;-59
2024/02/13 00:57:02;;;;;;;11.03;4.03;;;2.40;99.90;;;;;;4991908;28;20499;-57
2024/02/13 00:59:30;;;;;;;14.27;4.10;;;2.40;99.90;;;;;;4992937;28;20037;-58
2024/02/13 01:01:56;;;;;;;15.13;4.50;;;2.30;99.90;;;;;;4992860;28;20039;-54
2024/02/13 01:04:22;;;;;;;12.10;4.10;;;2.30;99.90;;;;;;4992942;28;20476;-57
2024/02/13 01:06:48;;;;;;;10.33;3.90;;;2.30;99.90;;;;;;4992898;28;20027;-59
2024/02/13 01:09:14;;;;;;;11.77;4.20;;;2.30;99.90;;;;;;4992689;28;20399;-57
2024/02/13 01:11:39;;;;;;;9.63;3.40;;;2.30;99.90;;;;;;4992968;28;20502;-57
2024/02/13 01:14:05;;;;;;;12.97;4.47;;;2.30;99.90;;;;;;4993246;28;20073;-58
2024/02/13 01:16:31;;;;;;;10.40;3.97;;;2.30;99.90;;;;;;4992790;28;20062;-54
2024/02/13 01:18:57;;;;;;;9.60;4.20;;;2.30;99.90;;;;;;4992720;28;20089;-58
2024/02/13 01:21:22;;;;;;;9.43;3.90;;;2.20;99.90;;;;;;4992657;28;20066;-58
2024/02/13 01:23:49;;;;;;;15.53;4.30;;;2.20;99.90;;;;;;4992761;28;20407;-57
2024/02/13 01:26:18;;;;;;;8.23;4.10;;;2.20;99.90;;;;;;4992786;28;20042;-58
2024/02/13 01:28:44;;;;;;;11.00;4.18;;;2.20;99.90;;;;;;4992555;28;20411;-56
2024/02/13 01:31:11;;;;;;;13.93;5.13;;;2.20;99.90;;;;;;4992520;28;20070;-58
2024/02/13 01:33:36;;;;;;;11.33;4.70;;;2.20;99.90;;;;;;4992722;28;20392;-58
2024/02/13 01:36:04;;;;;;;11.80;4.23;;;2.10;99.90;;;;;;4992746;28;20019;-59
2024/02/13 01:38:30;;;;;;;11.43;4.67;;;2.10;99.90;;;;;;4992629;28;20034;-58
2024/02/13 01:40:56;;;;;;;12.33;5.03;;;2.10;99.90;;;;;;4992422;28;20503;-57
2024/02/13 01:43:25;;;;;;;9.50;4.43;;;2.20;99.90;;;;;;4993094;28;20034;-59
2024/02/13 01:45:55;;;;;;;14.40;4.03;;;2.10;99.90;;;;;;4992575;28;20031;-59
2024/02/13 01:48:22;;;;;;;9.37;4.00;;;2.20;99.90;;;;;;4992638;28;20482;-55
2024/02/13 01:50:49;;;;;;;19.70;5.53;;;2.20;99.90;;;;;;4992478;28;20066;-58
2024/02/13 01:53:18;;;;;;;15.90;5.20;;;2.30;99.90;;;;;;4992388;28;20122;-58
2024/02/13 01:55:45;;;;;;;13.93;4.67;;;2.50;99.90;;;;;;4992552;28;20394;-57
2024/02/13 01:58:12;;;;;;;11.80;3.83;;;2.50;99.90;;;;;;4992278;28;20391;-57
2024/02/13 02:00:38;;;;;;;12.93;5.27;;;2.60;99.90;;;;;;4992267;28;20104;-58
2024/02/13 02:03:04;;;;;;;12.50;5.40;;;2.60;99.90;;;;;;4992502;28;20046;-55
2024/02/13 02:05:31;;;;;;;16.50;5.53;;;2.80;99.90;;;;;;4994996;28;20026;-57
2024/02/13 02:07:58;;;;;;;15.10;5.80;;;2.80;99.90;;;;;;4996172;28;20234;-58
2024/02/13 02:10:24;;;;;;;14.27;5.27;;;2.80;99.90;;;;;;4994961;28;20093;-57
2024/02/13 02:12:50;;;;;;;16.33;5.63;;;2.80;99.90;;;;;;4996300;28;20038;-55
2024/02/13 02:15:16;;;;;;;12.00;5.23;;;2.80;99.90;;;;;;4996190;28;20442;-58
2024/02/13 02:17:52;;;;;;;15.10;6.60;;;2.80;99.90;;;;;;4994831;28;20041;-53
2024/02/13 02:20:22;;;;;;;15.23;5.53;;;2.80;99.90;;;;;;4995868;28;20058;-53
2024/02/13 02:22:51;;;;;;;17.07;6.23;;;2.80;99.90;;;;;;4995900;28;20112;-52
2024/02/13 02:25:18;;;;;;;12.82;5.70;;;2.80;99.90;;;;;;4995884;28;20031;-57
2024/02/13 02:27:44;;;;;;;14.77;5.73;;;2.80;99.90;;;;;;4995758;28;20109;-56
2024/02/13 02:30:10;;;;;;;15.03;6.20;;;2.90;99.90;;;;;;4995659;28;20054;-52
2024/02/13 02:32:36;;;;;;;18.70;6.43;;;2.80;99.90;;;;;;4996063;28;20510;-54
2024/02/13 02:35:02;;;;;;;14.90;6.40;;;2.90;99.90;;;;;;4995633;28;20142;-52
2024/02/13 02:37:28;;;;;;;14.80;6.03;;;3.00;99.90;;;;;;4995637;28;20127;-54
2024/02/13 02:39:53;;;;;;;19.73;5.73;;;3.00;99.90;;;;;;4995304;28;20058;-58
2024/02/13 02:42:21;;;;;;;15.70;6.30;;;2.90;99.90;;;;;;4995861;28;20045;-57
2024/02/13 02:44:46;;;;;;;14.13;6.10;;;2.90;99.90;;;;;;4996384;28;20045;-58
2024/02/13 02:47:12;;;;;;;12.23;5.73;;;2.90;99.90;;;;;;4995845;28;20026;-58
2024/02/13 02:49:38;;;;;;;14.47;6.23;;;2.90;99.90;;;;;;4995494;28;20026;-58
2024/02/13 02:52:08;;;;;;;15.37;6.33;;;2.80;99.90;;;;;;4995553;28;20080;-56
2024/02/13 02:54:36;;;;;;;18.90;7.10;;;2.80;99.90;;;;;;4995296;28;20022;-55
2024/02/13 02:57:05;;;;;;;12.70;5.90;;;2.80;99.90;;;;;;4995443;28;20066;-58
2024/02/13 02:59:31;;;;;;;15.52;7.60;;;2.80;99.90;;;;;;4995031;28;20364;-58
2024/02/13 03:01:57;;;;;;;16.23;7.10;;;2.90;99.90;;;;;;4995150;28;20110;-57
2024/02/13 03:04:23;;;;;;;14.73;6.50;;;2.90;99.90;;;;;;4995084;28;20026;-58
2024/02/13 03:06:48;;;;;;;17.63;6.87;;;3.00;99.90;;;;;;4995197;28;20038;-58
2024/02/13 03:09:15;;;;;;;15.93;6.83;;;3.10;99.90;;;;;;4994725;28;20034;-57
2024/02/13 03:11:42;;;;;;;12.73;6.43;;;3.10;99.90;;;;;;4995241;28;20126;-57
2024/02/13 03:14:09;;;;;;;16.37;6.87;;;3.10;99.90;;;;;;4994943;28;20117;-58
2024/02/13 03:16:35;;;;;;;13.63;6.50;;;3.10;99.90;;;;;;4994567;28;20042;-58
2024/02/13 03:19:05;;;;;;;16.40;8.13;;;3.20;99.90;;;;;;4994816;28;20045;-59
2024/02/13 03:21:35;;;;;;;16.03;7.37;;;3.30;99.90;;;;;;4994832;28;20045;-58
2024/02/13 03:24:01;;;;;;;15.87;7.13;;;3.30;99.90;;;;;;4994850;28;20165;-58
2024/02/13 03:26:27;;;;;;;17.47;7.37;;;3.20;99.90;;;;;;4994900;28;20117;-57
2024/02/13 03:28:52;;;;;;;17.97;7.10;;;3.20;99.90;;;;;;4994544;28;20042;-57
2024/02/13 03:31:18;;;;;;;18.33;7.83;;;3.30;99.90;;;;;;4994802;28;20031;-59
2024/02/13 03:33:44;;;;;;;18.23;7.87;;;3.40;99.90;;;;;;4994619;28;20026;-55
2024/02/13 03:36:12;;;;;;;16.57;8.07;;;3.40;99.90;;;;;;4994656;28;20034;-57
2024/02/13 03:38:38;;;;;;;22.07;7.97;;;3.40;99.90;;;;;;4994456;28;20031;-57
2024/02/13 03:41:03;;;;;;;20.63;7.73;;;3.50;99.90;;;;;;4994741;28;20064;-58
2024/02/13 03:43:29;;;;;;;15.87;7.27;;;3.50;99.90;;;;;;4994766;28;20084;-58
2024/02/13 03:45:55;;;;;;;19.27;7.33;;;3.50;99.90;;;;;;4994667;28;20507;-53
2024/02/13 03:48:21;;;;;;;20.53;7.20;;;3.60;99.90;;;;;;4994527;28;20026;-57
2024/02/13 03:50:46;;;;;;;22.40;7.77;;;3.60;99.90;;;;;;4994309;28;20040;-56
2024/02/13 03:53:13;;;;;;;20.03;7.37;;;3.60;99.90;;;;;;4994261;28;20045;-56
2024/02/13 03:55:39;;;;;;;16.67;6.93;;;3.60;99.90;;;;;;4994491;28;20038;-58
2024/02/13 03:58:05;;;;;;;16.83;7.70;;;3.60;99.90;;;;;;4994361;28;20066;-54
2024/02/13 04:00:32;;;;;;;19.03;7.53;;;3.60;99.90;;;;;;4994136;28;20507;-57
2024/02/13 04:02:58;;;;;;;23.53;7.50;;;3.60;99.90;;;;;;4994408;28;20026;-57
2024/02/13 04:05:24;;;;;;;20.70;7.30;;;3.60;99.90;;;;;;4994411;28;20092;-57
2024/02/13 04:07:50;;;;;;;18.80;7.73;;;3.60;99.90;;;;;;4994163;28;20153;-57
2024/02/13 04:10:16;;;;;;;16.60;6.93;;;3.60;99.90;;;;;;4993967;28;20148;-57
2024/02/13 04:12:43;;;;;;;16.20;7.40;;;3.70;99.90;;;;;;4994267;28;20101;-55
2024/02/13 04:15:09;;;;;;;21.57;7.80;;;3.70;99.90;;;;;;4994103;28;20042;-58
2024/02/13 04:17:35;;;;;;;16.70;8.27;;;3.60;99.90;;;;;;4993960;28;20042;-56
2024/02/13 04:20:03;;;;;;;17.83;7.80;;;3.70;99.90;;;;;;4993360;28;20049;-56
2024/02/13 04:22:28;;;;;;;17.80;7.23;;;3.60;99.90;;;;;;4993797;28;20085;-58
2024/02/13 04:24:55;;;;;;;17.27;8.03;;;3.70;99.90;;;;;;4993977;28;20362;-56
2024/02/13 04:27:21;;;;;;;19.47;8.07;;;3.70;99.90;;;;;;4992946;28;20105;-55
2024/02/13 04:29:47;;;;;;;16.53;7.27;;;3.70;99.90;;;;;;4993443;28;20072;-57
2024/02/13 04:32:13;;;;;;;18.93;8.07;;;3.70;99.90;;;;;;4994103;28;20081;-57
2024/02/13 04:34:39;;;;;;;16.47;7.57;;;3.70;99.90;;;;;;4993805;28;20058;-56
2024/02/13 04:37:04;;;;;;;19.10;8.17;;;3.70;99.90;;;;;;4993891;28;20057;-58
2024/02/13 04:39:30;;;;;;;23.37;8.93;;;3.70;99.90;;;;;;4993361;28;20027;-57
2024/02/13 04:41:56;;;;;;;19.80;7.70;;;3.70;99.90;;;;;;4993760;28;20058;-54
2024/02/13 04:44:21;;;;;;;17.33;7.90;;;3.70;99.90;;;;;;4993480;28;20030;-57
2024/02/13 04:46:47;;;;;;;17.07;6.93;;;3.70;99.90;;;;;;4993418;28;20026;-57
2024/02/13 04:49:13;;;;;;;19.27;7.60;;;3.70;99.90;;;;;;4992975;28;20072;-55
2024/02/13 04:51:38;;;;;;;16.03;6.93;;;3.70;99.90;;;;;;4993464;28;20038;-55
2024/02/13 04:54:05;;;;;;;17.17;7.37;;;3.70;99.90;;;;;;4993254;28;20033;-57
2024/02/13 04:56:30;;;;;;;15.87;7.40;;;3.70;99.90;;;;;;4993371;28;20042;-58
2024/02/13 04:58:56;;;;;;;18.10;7.60;;;3.70;99.90;;;;;;4993204;28;20030;-57
2024/02/13 05:01:23;;;;;;;16.00;7.50;;;3.70;99.90;;;;;;4993129;28;20506;-57
2024/02/13 05:08:59;;;;;;;15.40;7.03;;;3.50;99.90;;;;;;4993143;28;20034;-56
2024/02/13 05:11:27;;;;;;;16.60;6.40;;;3.50;99.90;;;;;;4993372;28;20033;-58
2024/02/13 05:13:53;;;;;;;12.60;6.57;;;3.50;99.90;;;;;;4993035;28;20476;-56
2024/02/13 05:16:19;;;;;;;17.40;6.70;;;3.60;99.90;;;;;;4992950;28;20042;-57
2024/02/13 05:18:47;;;;;;;16.80;7.13;;;3.50;99.90;;;;;;4992629;28;20177;-57
2024/02/13 05:21:15;;;;;;;17.93;7.27;;;3.60;99.90;;;;;;4992822;28;20088;-57
2024/02/13 05:23:42;;;;;;;16.30;7.10;;;3.50;99.90;;;;;;4993112;28;20163;-56
2024/02/13 05:26:07;;;;;;;16.80;7.30;;;3.50;99.90;;;;;;4992844;28;20027;-57
2024/02/13 05:28:37;;;;;;;15.77;6.50;;;3.50;99.90;;;;;;4992569;28;20398;-56
2024/02/13 05:31:06;;;;;;;24.58;7.65;;;3.50;99.90;;;;;;4991535;28;20038;-56
2024/02/13 05:33:33;;;;;;;18.02;6.90;;;3.50;99.90;;;;;;4992747;28;20098;-57
2024/02/13 05:35:58;;;;;;;14.50;6.40;;;3.50;99.90;;;;;;4991614;28;20034;-56
2024/02/13 05:38:24;;;;;;;19.93;7.70;;;3.50;99.90;;;;;;4993250;28;20044;-57
2024/02/13 05:40:50;;;;;;;23.13;7.90;;;3.50;99.90;;;;;;4996651;28;20038;-56
2024/02/13 05:43:16;;;;;;;14.73;7.43;;;3.50;99.90;;;;;;4996653;28;20034;-58
2024/02/13 05:45:42;;;;;;;15.43;6.20;;;3.50;99.90;;;;;;4997134;28;20029;-59
2024/02/13 05:48:09;;;;;;;13.83;5.67;;;3.50;99.90;;;;;;4997266;28;20030;-58
2024/02/13 05:50:35;;;;;;;16.57;6.20;;;3.50;99.90;;;;;;4996696;28;20415;-57
2024/02/13 05:53:01;;;;;;;14.87;6.13;;;3.50;99.90;;;;;;4996775;28;20484;-58
2024/02/13 05:55:28;;;;;;;16.07;6.30;;;3.40;99.90;;;;;;4996544;28;20626;-58
2024/02/13 05:57:54;;;;;;;15.73;6.07;;;3.40;99.90;;;;;;4996194;28;20340;-55
2024/02/13 06:00:24;;;;;;;15.27;6.40;;;3.50;99.90;;;;;;4995051;28;20038;-57
2024/02/13 06:02:54;;;;;;;23.27;6.67;;;3.40;99.90;;;;;;4996207;28;20514;-57
2024/02/13 06:05:23;;;;;;;15.70;7.07;;;3.40;99.90;;;;;;4996454;28;20038;-54
2024/02/13 06:07:50;;;;;;;17.50;6.10;;;3.30;99.90;;;;;;4996354;28;20463;-54
2024/02/13 06:10:16;;;;;;;15.33;6.10;;;3.30;99.90;;;;;;4996114;28;20054;-58
2024/02/13 06:12:43;;;;;;;19.93;6.43;;;3.30;99.90;;;;;;4996245;28;20042;-57
2024/02/13 06:15:09;;;;;;;11.93;5.40;;;3.30;99.90;;;;;;4996482;28;20045;-58
2024/02/13 06:17:36;;;;;;;18.27;5.97;;;3.40;99.90;;;;;;4996165;28;20400;-57
2024/02/13 06:20:05;;;;;;;11.17;5.70;;;3.30;99.90;;;;;;4995729;28;20030;-54
2024/02/13 06:22:36;;;;;;;11.45;5.00;;;3.30;99.90;;;;;;4996037;28;20030;-56
2024/02/13 06:25:04;;;;;;;13.70;5.87;;;3.30;99.90;;;;;;4995924;28;20058;-59
2024/02/13 06:27:33;;;;;;;15.80;5.77;;;3.30;99.90;;;;;;4994774;28;20026;-56
2024/02/13 06:30:00;;;;;;;13.43;5.40;;;3.30;99.90;;;;;;4995517;28;20034;-54
2024/02/13 06:32:26;;;;;;;16.93;5.40;;;3.30;99.90;;;;;;4995743;28;20093;-56
2024/02/13 06:34:54;;;;;;;13.73;5.47;;;3.40;99.90;;;;;;4994514;28;20046;-59
2024/02/13 06:37:21;;;;;;;17.27;5.83;;;3.40;99.90;;;;;;4995869;28;20076;-57
2024/02/13 06:39:48;;;;;;;11.83;4.80;;;3.40;99.90;;;;;;4995339;28;20102;-57
2024/02/13 06:42:14;;;;;;;16.60;4.80;;;3.30;99.90;;;;;;4995755;28;20042;-57
2024/02/13 06:44:40;;;;;;;14.33;5.60;;;3.40;99.90;;;;;;4995602;28;20033;-54
2024/02/13 06:47:08;;;;;;;13.73;5.73;;;3.40;99.90;;;;;;4995703;28;20034;-56
2024/02/13 06:49:34;;;;;;;9.23;4.87;;;3.40;99.90;;;;;;4995046;28;20084;-58
2024/02/13 06:52:00;;;;;;;12.80;4.67;;;3.40;99.90;;;;;;4994741;28;20026;-54
2024/02/13 06:54:25;;;;;;;12.00;4.93;;;3.30;99.90;;;;;;4994117;28;20553;-55
2024/02/13 06:56:51;;;;;;;14.83;5.33;;;3.30;99.90;;;;;;4995341;28;20038;-55
2024/02/13 06:59:17;;;;;;;11.73;4.67;;;3.40;99.90;;;;;;4995195;28;20035;-58
2024/02/13 07:01:43;;;;;;;14.00;4.73;;;3.40;99.90;;;;;;4995151;28;20026;-58
2024/02/13 07:04:10;;;;;;;11.47;4.70;;;3.50;99.90;;;;;;4995136;28;20475;-58
2024/02/13 07:06:37;;;;;;;12.50;5.10;;;3.50;99.90;;;;;;4995127;28;20112;-58
2024/02/13 07:09:05;;;;;;;10.53;4.03;;;3.60;99.90;;;;;;4995031;28;20037;-57
2024/02/13 07:11:31;;;;;;;8.63;3.77;;;3.60;99.90;;;;;;4995061;28;20396;-57
2024/02/13 07:13:57;;;;;;;12.60;4.40;;;3.70;99.90;;;;;;4994997;28;20037;-57
2024/02/13 07:16:23;;;;;;;13.40;4.10;;;3.70;99.90;;;;;;4994996;28;20034;-57
2024/02/13 07:18:48;;;;;;;10.33;4.50;;;3.60;99.90;;;;;;4995152;28;20124;-58
2024/02/13 07:21:15;;;;;;;14.47;4.00;;;3.60;99.90;;;;;;4994723;28;20030;-56
2024/02/13 07:23:41;;;;;;;10.73;4.00;;;3.60;99.90;;;;;;4994656;28;20101;-57
2024/02/13 07:26:09;;;;;;;8.50;3.37;;;3.70;99.90;;;;;;4994937;28;20049;-57
2024/02/13 07:28:34;;;;;;;10.77;4.03;;;3.80;99.90;;;;;;4994436;28;20041;-58
2024/02/13 07:31:00;;;;;;;13.87;3.97;;;3.80;99.90;;;;;;4994743;28;20399;-56
2024/02/13 07:33:26;;;;;;;10.67;3.63;;;3.70;99.90;;;;;;4994779;28;20030;-58
2024/02/13 07:35:52;;;;;;;9.27;3.13;;;3.80;99.90;;;;;;4994556;28;20045;-57
2024/02/13 07:38:17;;;;;;;7.97;3.43;;;3.90;99.90;;;;;;4994194;28;20038;-56
2024/02/13 07:40:44;;;;;;;7.67;3.17;;;4.00;99.90;;;;;;4994215;28;20076;-53
2024/02/13 07:43:12;;;;;;;14.30;4.07;;;4.10;99.90;;;;;;4994321;28;20404;-56
2024/02/13 07:45:38;;;;;;;9.33;3.30;;;4.20;99.90;;;;;;4994167;28;20027;-55
2024/02/13 07:48:04;;;;;;;9.23;3.83;;;4.30;99.90;;;;;;4993992;28;20033;-56
2024/02/13 07:50:30;;;;;;;7.07;3.40;;;4.40;99.90;;;;;;4994124;28;20463;-59
2024/02/13 07:52:55;;;;;;;7.50;3.20;;;4.40;99.90;;;;;;4994140;28;20073;-57
2024/02/13 07:55:22;;;;;;;8.63;3.50;;;4.50;99.90;;;;;;4993967;28;20057;-56
2024/02/13 07:57:50;;;;;;;8.77;2.70;;;4.50;99.90;;;;;;4994072;28;20168;-54
2024/02/13 08:00:17;;;;;;;7.67;3.20;;;4.40;99.90;;;;;;4993919;28;20041;-53
2024/02/13 08:02:44;;;;;;;11.33;3.30;;;4.50;99.90;;;;;;4993680;28;20042;-56
2024/02/13 08:05:10;;;;;;;7.07;2.90;;;4.50;99.90;;;;;;4993842;28;20089;-58
2024/02/13 08:07:35;;;;;;;11.87;3.60;;;4.60;99.90;;;;;;4993725;28;20034;-56
2024/02/13 08:10:01;;;;;;;7.57;2.70;;;4.60;99.90;;;;;;4993493;28;20435;-57
2024/02/13 08:12:28;;;;;;;7.37;2.83;;;4.70;99.90;;;;;;4993760;28;20360;-57
2024/02/13 08:14:54;;;;;;;6.40;3.33;;;4.90;99.90;;;;;;4993836;28;20030;-53
2024/02/13 08:17:19;;;;;;;6.27;2.80;;;4.90;99.90;;;;;;4993567;28;20125;-57
2024/02/13 08:19:45;;;;;;;6.13;2.80;;;5.00;99.90;;;;;;4993419;28;20085;-56
2024/02/13 08:22:10;;;;;;;8.10;2.63;;;5.00;99.90;;;;;;4993417;28;20022;-55
2024/02/13 08:24:36;;;;;;;8.27;3.13;;;5.20;99.90;;;;;;4993574;28;20479;-56
2024/02/13 08:27:02;;;;;;;6.07;2.33;;;5.40;99.90;;;;;;4993747;28;20072;-58
2024/02/13 08:29:28;;;;;;;5.97;2.00;;;5.50;99.90;;;;;;4993025;28;20035;-56
2024/02/13 08:31:54;;;;;;;4.80;2.60;;;5.60;99.90;;;;;;4993371;28;20042;-57
2024/02/13 08:34:21;;;;;;;5.33;2.67;;;5.70;99.90;;;;;;4993368;28;20039;-55
2024/02/13 08:36:48;;;;;;;7.43;2.37;;;5.80;99.90;;;;;;4993432;28;20026;-58
2024/02/13 08:39:14;;;;;;;4.93;2.10;;;5.80;99.90;;;;;;4993035;28;20042;-56
2024/02/13 08:41:39;;;;;;;14.23;4.43;;;5.80;99.90;;;;;;4993009;28;20041;-58
2024/02/13 08:44:05;;;;;;;7.63;2.37;;;5.90;99.90;;;;;;4993035;28;20399;-55
2024/02/13 08:46:30;;;;;;;7.53;2.30;;;6.10;99.90;;;;;;4994375;28;20030;-55
2024/02/13 08:48:56;;;;;;;3.97;1.83;;;6.30;99.90;;;;;;4993205;28;20065;-57
2024/02/13 08:51:26;;;;;;;6.60;1.77;;;6.50;99.90;;;;;;4993330;28;20038;-57
2024/02/13 08:53:52;;;;;;;6.57;2.00;;;6.80;99.90;;;;;;4993415;28;20045;-56
2024/02/13 08:56:18;;;;;;;6.07;2.03;;;7.10;99.90;;;;;;4992944;28;20030;-56
2024/02/13 08:58:43;;;;;;;4.87;1.77;;;7.40;99.90;;;;;;4992772;28;20058;-56
2024/02/13 09:01:09;;;;;;;7.00;2.10;;;7.60;99.90;;;;;;4992794;28;20490;-57
2024/02/13 09:03:35;;;;;;;11.07;2.17;;;7.90;99.90;;;;;;4992866;28;20041;-57
2024/02/13 09:06:04;;;;;;;4.77;1.60;;;8.00;99.90;;;;;;4992823;28;20033;-56
2024/02/13 09:08:31;;;;;;;;;;;8.20;99.90;;;;;;4993166;28;20034;-58
2024/02/13 09:10:56;;;;;;;4.90;1.60;;;8.20;99.90;;;;;;4992790;28;20346;-57
2024/02/13 09:13:22;;;;;;;5.70;1.57;;;8.30;99.90;;;;;;4992254;28;20121;-57
2024/02/13 09:15:47;;;;;;;5.90;1.83;;;8.50;99.90;;;;;;4992615;28;20027;-58
2024/02/13 09:18:13;;;;;;;4.93;1.40;;;8.80;99.90;;;;;;4992463;28;20104;-55
2024/02/13 09:20:39;;;;;;;4.87;1.73;;;9.30;99.90;;;;;;4991476;28;20030;-58
2024/02/13 09:23:04;;;;;;;7.33;1.90;;;9.90;99.90;;;;;;4992564;28;20496;-58
2024/02/13 09:25:30;;;;;;;3.43;1.40;;;10.30;99.90;;;;;;4992569;28;20085;-56
2024/02/13 09:27:58;;;;;;;3.73;1.37;;;10.60;99.90;;;;;;4992158;28;20085;-57
2024/02/13 09:30:24;;;;;;;4.57;1.40;;;10.50;99.90;;;;;;4992396;28;20559;-58
2024/02/13 09:32:49;;;;;;;3.67;1.03;;;10.70;99.90;;;;;;4991283;28;20062;-59
2024/02/13 09:35:15;;;;;;;5.47;1.60;;;11.10;99.90;;;;;;4992421;28;20061;-57
2024/02/13 09:37:42;;;;;;;3.42;1.20;;;11.90;99.90;;;;;;4992429;28;20121;-59
2024/02/13 09:40:15;;;;;;;6.70;2.00;;;12.20;99.90;;;;;;4992100;28;20030;-59
2024/02/13 09:42:42;;;;;;;3.92;1.30;;;12.60;99.90;;;;;;4993187;28;20026;-58
2024/02/13 09:45:09;;;;;;;3.38;1.40;;;12.50;99.90;;;;;;4992327;28;20039;-59
2024/02/13 09:47:37;;;;;;;4.35;1.23;;;11.90;99.90;;;;;;4992335;28;20050;-58
2024/02/13 09:50:09;;;;;;;6.88;2.13;;;11.10;99.90;;;;;;4992098;28;20454;-58
2024/02/13 09:52:36;;;;;;;3.55;1.20;;;10.40;99.90;;;;;;4992268;28;20531;-57
2024/02/13 09:55:03;;;;;;;3.57;1.27;;;9.90;99.90;;;;;;4992165;28;20479;-58
2024/02/13 09:57:29;;;;;;;3.80;1.23;;;9.60;99.90;;;;;;4992150;28;20030;-58
2024/02/13 09:59:56;;;;;;;3.37;1.20;;;9.30;99.90;;;;;;4991980;28;20033;-58
2024/02/13 10:02:27;;;;;;;3.83;1.40;;;9.40;99.90;;;;;;4992282;28;20027;-58
2024/02/13 10:04:53;;;;;;;5.70;1.10;;;10.00;99.90;;;;;;4992073;28;20100;-59
2024/02/13 10:07:19;;;;;;;3.08;1.00;;;10.70;99.90;;;;;;4992354;28;20034;-58
2024/02/13 10:09:45;;;;;;;4.25;1.35;;;11.40;99.90;;;;;;4992220;28;20030;-58
2024/02/13 10:12:14;;;;;;;3.88;1.30;;;11.90;99.90;;;;;;4991999;28;20037;-59
2024/02/13 10:14:40;;;;;;;4.90;1.00;;;11.90;99.90;;;;;;4992037;28;20069;-57
2024/02/13 10:17:14;;;;;;;5.85;1.30;;;12.60;99.90;;;;;;4992225;28;20329;-57
2024/02/13 10:19:40;;;;;;;4.97;1.10;;;12.60;99.90;;;;;;4991818;28;20487;-57
2024/02/13 10:22:06;;;;;;;3.67;1.30;;;13.00;99.90;;;;;;4991947;28;20498;-57
2024/02/13 10:24:32;;;;;;;3.63;1.05;;;12.70;99.90;;;;;;4991877;28;20037;-58
2024/02/13 10:26:59;;;;;;;6.53;1.40;;;12.60;99.90;;;;;;4995013;28;20026;-58
2024/02/13 10:29:25;;;;;;;3.67;1.08;;;12.30;99.90;;;;;;5022104;23;20065;-51
2024/02/13 10:31:50;;;;;;;4.05;1.08;;;12.00;99.90;;;;;;5015221;28;20475;-53
2024/02/13 10:34:19;;;;;;;6.28;1.63;;;11.70;99.90;;;;;;5015046;28;20026;-51
2024/02/13 10:36:44;;;;;;;7.38;1.30;;;11.90;99.90;;;;;;5015517;28;20378;-50
2024/02/13 10:39:12;;;;;;;5.18;1.23;;;12.40;99.90;;;;;;5014773;28;20109;-52
2024/02/13 10:41:40;;;;;;;3.88;1.27;;;12.10;99.90;;;;;;5014759;28;20038;-51
2024/02/13 10:44:09;;;;;;;4.05;1.20;;;11.80;99.90;;;;;;5014842;28;20034;-50
2024/02/13 10:46:39;;;;;;;4.45;1.15;;;11.80;99.90;;;;;;5014924;28;20030;-53
2024/02/13 10:49:24;;;;;;;4.40;1.45;;;12.10;99.90;;;;;;5014474;28;20052;-49
2024/02/13 10:51:53;;;;;;;3.95;1.20;;;12.30;99.90;;;;;;5014845;28;20072;-51
2024/02/13 10:54:23;;;;;;;6.13;1.25;;;12.10;99.90;;;;;;5014731;28;20117;-49
2024/02/13 10:56:51;;;;;;;4.63;1.58;;;12.00;99.90;;;;;;5014940;28;20399;-51
2024/02/13 10:59:21;;;;;;;3.15;1.00;;;12.00;99.90;;;;;;5014400;28;20045;-48
2024/02/13 11:01:48;;;;;;;4.97;1.45;;;11.90;99.90;;;;;;5014494;28;20558;-52
2024/02/13 11:04:16;;;;;;;6.20;1.50;;;11.50;99.90;;;;;;5014463;28;20088;-50
2024/02/13 11:06:42;;;;;;;3.55;1.02;;;11.10;99.90;;;;;;5013217;28;20033;-48
2024/02/13 11:09:12;;;;;;;1.67;0.73;;;11.00;99.90;;;;;;5014189;28;20072;-49
2024/02/13 11:11:39;;;;;;;3.17;0.93;;;11.80;99.90;;;;;;5014577;28;20064;-51
2024/02/13 11:14:18;;;;;;;4.80;1.20;;;12.90;99.90;;;;;;5014293;28;20041;-49
2024/02/13 11:16:58;;;;;;;4.25;1.10;;;14.20;99.90;;;;;;5014375;28;20038;-49
2024/02/13 11:19:35;;;;;;;3.67;1.00;;;14.80;99.90;;;;;;5013923;28;20120;-52
2024/02/13 11:22:01;;;;;;;5.20;1.33;;;14.80;99.40;;;;;;5014118;28;20048;-53
2024/02/13 11:24:26;;;;;;;4.38;1.10;;;14.80;99.50;;;;;;5014089;28;20041;-52
2024/02/13 11:26:52;;;;;;;3.47;0.90;;;15.20;99.10;;;;;;5014177;28;20150;-50
2024/02/13 11:29:22;;;;;;;4.43;1.42;;;15.90;97.20;;;;;;5013843;28;20041;-49
2024/02/13 11:31:55;;;;;;;3.10;0.75;;;16.50;96.80;;;;;;5014357;28;20049;-49
2024/02/13 11:34:36;;;;;;;5.22;1.55;;;16.80;95.70;;;;;;5013958;28;20037;-49
2024/02/13 11:37:16;;;;;;;5.32;1.10;;;17.50;93.90;;;;;;5013655;28;20057;-48
2024/02/13 11:39:41;;;;;;;5.25;1.08;;;18.00;93.20;;;;;;5013633;28;20434;-48
2024/02/13 11:42:07;;;;;;;2.50;0.80;;;18.50;91.10;;;;;;5013824;28;20036;-48
2024/02/13 11:44:36;;;;;;;1.90;0.82;;;18.40;90.20;;;;;;5013696;28;20398;-50
2024/02/13 11:47:03;;;;;;;;;;;18.10;91.50;;;;;;5014280;28;20026;-50
2024/02/13 11:49:30;;;;;;;1.55;0.77;;;17.90;90.50;;;;;;5012319;28;19916;-48
2024/02/13 11:51:56;;;;;;;2.53;0.70;;;17.70;90.90;;;;;;5014313;28;20041;-48
2024/02/13 11:54:22;;;;;;;1.92;0.75;;;17.30;90.40;;;;;;5013624;28;20045;-51
2024/02/13 11:56:50;;;;;;;2.63;0.60;;;16.50;91.40;;;;;;5013773;28;20037;-48
2024/02/13 11:59:15;;;;;;;5.45;0.70;;;15.60;92.20;;;;;;5013332;28;20042;-48
2024/02/13 12:01:42;;;;;;;3.67;1.10;;;14.80;93.50;;;;;;5013545;28;20057;-49
2024/02/13 12:04:11;;;;;;;4.10;0.52;;;14.10;95.10;;;;;;5013489;28;20080;-49
2024/02/13 12:06:38;;;;;;;4.43;0.85;;;13.40;96.60;;;;;;5013519;28;20401;-50
2024/02/13 12:09:07;;;;;;;4.05;0.73;;;12.90;97.70;;;;;;5013317;28;20026;-49
2024/02/13 12:11:35;;;;;;;3.42;0.77;;;12.70;98.40;;;;;;5013400;28;20025;-50
2024/02/13 12:14:03;;;;;;;5.60;0.90;;;13.00;98.10;;;;;;5013466;28;20491;-51
2024/02/13 12:16:32;;;;;;;3.97;0.77;;;13.00;97.70;;;;;;5013460;28;20034;-49
2024/02/13 12:18:58;;;;;;;3.83;0.73;;;12.80;97.90;;;;;;5013118;28;20045;-49
2024/02/13 12:21:26;;;;;;;1.85;0.80;;;12.40;98.20;;;;;;5013789;28;20065;-49
2024/02/13 12:23:55;;;;;;;3.75;0.90;;;12.40;99.20;;;;;;5012595;28;20034;-49
2024/02/13 12:26:22;;;;;;;;;;;12.70;99.60;;;;;;5013030;28;20026;-49
2024/02/13 12:28:57;;;;;;;1.85;0.70;;;13.20;99.20;;;;;;5014473;28;19921;-49
2024/02/13 12:31:24;;;;;;;3.22;0.70;;;13.40;98.30;;;;;;5014862;28;20045;-50
2024/02/13 12:34:05;;;;;;;5.28;0.85;;;13.60;97.30;;;;;;5014531;28;20092;-48
2024/02/13 12:36:31;;;;;;;3.38;0.82;;;13.40;97.70;;;;;;5014511;28;20049;-49
2024/02/13 12:39:08;;;;;;;1.42;0.88;;;13.00;98.00;;;;;;5014011;28;20501;-49
2024/02/13 12:41:35;;;;;;;4.50;0.70;;;12.70;98.40;;;;;;5012791;28;20038;-49
2024/02/13 12:44:01;;;;;;;3.92;0.85;;;12.70;98.10;;;;;;5012463;28;20025;-48
2024/02/13 12:46:30;;;;;;;2.00;0.90;;;13.20;98.50;;;;;;5012547;28;20033;-51
2024/02/13 12:48:56;;;;;;;3.28;1.00;;;14.40;97.70;;;;;;5011632;28;20045;-50
2024/02/13 12:51:22;;;;;;;3.35;0.73;;;15.30;94.10;;;;;;5012361;28;20065;-52
2024/02/13 12:53:51;;;;;;;1.98;0.77;;;15.40;93.30;;;;;;5011079;28;20030;-52